Latest Weather Observations for Holsworthy (Defence)

IDN60901

Issued at 10:01 pm EST Wednesday 12 August 2020 (issued every 10 minutes, with the page automatically refreshed every 10 minutes)

About weather observations | Map of Sydney area stations | Latest observations for Sydney area | Other Formats
Station Details ID: 068263 Name: HOLSWORTHY DEFENCE AWS Lat: -34.08 Lon: 150.90 Height: 165.0 m
Data from the previous 72 hours. | See also: Recent months at Holsworthy (Defence)
Date/Time
EST
Temp
°C
App
Temp
°C
Dew
Point
°C
Rel
Hum
%
Delta-T
°C
Wind Press
QNH
hPa
Press
MSL
hPa
Rain since
9am
mm
Dir  Spd
km/h
Gust
km/h
Spd
kts
Gust
kts
12/10:00pm 10.0 8.7 9.2 95 0.4 S 6 7 3 4 - - 2.4
12/09:30pm 10.8 10.3 9.4 91 0.7 W 2 4 1 2 - - 2.4
12/09:00pm 11.7 10.9 9.8 88 1.0 SE 4 7 2 4 - - 2.4
12/08:30pm 11.5 9.6 10.4 93 0.6 SW 11 20 6 11 - - 2.2
12/08:00pm 10.7 9.6 10.1 96 0.3 SSE 6 7 3 4 - - 0.0
12/07:30pm 10.6 9.5 9.8 95 0.4 SSE 6 7 3 4 - - 0.0
12/07:00pm 11.1 10.1 10.2 94 0.5 SSE 6 6 3 3 - - 0.0
12/06:30pm 12.0 11.5 10.6 91 0.7 S 4 6 2 3 - - 0.0
12/06:00pm 12.8 13.1 10.9 88 1.0 CALM 0 0 0 0 - - 0.0
12/05:30pm 13.5 13.8 10.9 84 1.4 CALM 0 0 0 0 - - 0.0
12/05:00pm 14.7 15.1 11.1 79 1.9 CALM 0 0 0 0 - - 0.0
12/04:30pm 15.1 15.2 10.3 73 2.5 CALM 0 0 0 0 - - 0.0
12/04:00pm 15.7 15.9 10.5 71 2.8 CALM 0 0 0 0 - - 0.0
12/03:30pm 16.6 16.5 10.7 68 3.2 NW 2 6 1 3 - - 0.0
12/03:00pm 15.3 15.0 10.1 71 2.7 NNW 2 6 1 3 - - 0.0
12/02:30pm 14.7 14.0 9.9 73 2.5 N 4 6 2 3 - - 0.0
12/02:00pm 15.1 14.0 10.1 72 2.6 N 6 11 3 6 - - 0.0
12/01:30pm 15.2 14.1 9.8 70 2.8 NNW 6 7 3 4 - - 0.0
12/01:00pm 15.2 13.9 9.8 70 2.8 N 7 11 4 6 - - 0.0
12/12:30pm 16.2 15.5 10.1 67 3.2 N 4 9 2 5 - - 0.0
12/12:00pm 16.3 15.1 9.7 65 3.5 WNW 6 9 3 5 - - 0.0
12/11:30am 15.0 13.6 9.6 70 2.8 NW 7 11 4 6 - - 0.0
12/11:00am 14.2 13.1 9.8 75 2.3 NNW 6 11 3 6 - - 0.0
12/10:30am 12.7 12.2 9.3 80 1.7 N 2 4 1 2 - - 0.0
12/10:00am 11.1 10.9 9.0 87 1.1 CALM 0 0 0 0 - - 0.0
12/09:30am 10.5 9.9 8.8 89 0.8 NNW 2 4 1 2 - - 0.0
12/09:00am 10.1 9.5 8.9 92 0.6 NNW 2 4 1 2 - - 0.0
12/08:30am 9.5 9.3 9.0 97 0.2 CALM 0 2 0 1 - - 0.0
12/08:00am 8.6 7.4 8.2 97 0.2 SSE 4 6 2 3 - - 0.0
12/07:30am 7.7 7.1 7.3 97 0.2 CALM 0 0 0 0 - - 0.0
12/07:00am 7.7 6.6 7.1 96 0.3 S 2 4 1 2 - - 0.0
12/06:30am 8.0 7.4 7.6 97 0.2 CALM 0 2 0 1 - - 0.0
12/06:00am 7.9 6.2 7.5 97 0.2 S 6 7 3 4 - - 0.0
12/05:30am 7.9 6.2 7.5 97 0.2 SSE 6 6 3 3 - - 0.0
12/05:00am 8.0 6.3 7.6 97 0.2 SSE 6 6 3 3 - - 0.0
12/04:30am 8.3 7.8 7.9 97 0.2 CALM 0 0 0 0 - - 0.0
12/04:00am 7.9 6.9 7.5 97 0.2 SW 2 2 1 1 - - 0.0
12/03:30am 7.9 7.3 7.5 97 0.2 CALM 0 2 0 1 - - 0.0
12/03:00am 7.7 5.9 7.3 97 0.2 S 6 7 3 4 - - 0.0
12/02:30am 7.9 6.9 7.5 97 0.2 S 2 4 1 2 - - 0.0
12/02:00am 7.8 6.4 7.4 97 0.2 SSW 4 6 2 3 - - 0.0
12/01:30am 7.9 6.2 7.5 97 0.2 SSE 6 7 3 4 - - 0.0
12/01:00am 7.8 6.4 7.4 97 0.2 SSE 4 6 2 3 - - 0.0
12/12:30am 7.7 6.3 7.3 97 0.2 S 4 6 2 3 - - 0.0
12/12:00am 7.4 5.6 7.0 97 0.2 S 6 6 3 3 - - 0.0
 
Date/Time
EST
Temp
°C
App
Temp
°C
Dew
Point
°C
Rel
Hum
%
Delta-T
°C
Wind Press
QNH
hPa
Press
MSL
hPa
Rain since
9am
mm
Dir  Spd
km/h
Gust
km/h
Spd
kts
Gust
kts
11/11:30pm 7.5 5.6 6.9 96 0.3 S 6 7 3 4 - - 0.0
11/11:00pm 7.6 5.8 7.0 96 0.3 S 6 7 3 4 - - 0.0
11/10:30pm 7.5 6.4 6.8 95 0.3 SSE 2 4 1 2 - - 0.0
11/10:00pm 7.8 6.7 7.1 95 0.3 SE 2 4 1 2 - - 0.0
11/09:30pm 7.8 7.0 6.7 93 0.5 CALM 0 0 0 0 - - 0.0
11/09:00pm 8.7 7.2 6.8 88 0.9 ENE 4 6 2 3 - - 0.0
11/08:30pm 10.1 8.5 8.0 87 1.0 E 6 9 3 5 - - 0.0
11/08:00pm 10.0 8.4 7.9 87 1.0 E 6 11 3 6 - - 0.0
11/07:30pm 10.1 8.4 8.2 88 0.9 E 7 9 4 5 - - 0.0
11/07:00pm 10.2 8.4 8.1 87 1.0 E 7 9 4 5 - - 0.0
11/06:30pm 10.7 8.9 8.1 84 1.3 E 7 9 4 5 - - 0.0
11/06:00pm 11.3 9.5 8.0 80 1.6 E 7 11 4 6 - - 0.0
11/05:30pm 12.3 10.3 6.4 67 2.8 NE 6 7 3 4 - - 0.0
11/05:00pm 13.7 11.5 6.3 61 3.6 N 7 11 4 6 - - 0.0
11/04:30pm 15.0 12.8 6.3 56 4.2 NNE 7 13 4 7 - - 0.0
11/04:00pm 15.8 13.7 6.0 52 4.8 NNE 6 11 3 6 - - 0.0
11/03:30pm 15.5 13.8 6.0 53 4.6 NNW 4 9 2 5 - - 0.0
11/03:00pm 16.9 15.0 6.7 51 5.1 NNW 6 13 3 7 - - 0.0
11/02:30pm 17.0 15.2 7.1 52 5.0 WNW 6 13 3 7 - - 0.0
11/02:00pm 16.3 14.1 6.4 52 4.9 N 7 15 4 8 - - 0.0
11/01:30pm 15.7 13.6 5.6 51 4.9 NW 6 13 3 7 - - 0.0
11/01:00pm 15.5 13.7 7.3 58 4.1 NW 6 11 3 6 - - 0.0
11/12:30pm 14.7 12.9 7.0 60 3.8 NW 6 9 3 5 - - 0.0
11/12:00pm 15.0 12.9 6.6 57 4.1 NW 7 17 4 9 - - 0.0
11/11:30am 15.2 13.8 7.3 59 3.9 W 4 9 2 5 - - 0.0
11/11:00am 14.5 12.8 7.5 63 3.5 WNW 6 11 3 6 - - 0.0
11/10:30am 13.8 12.4 8.8 72 2.5 W 6 9 3 5 - - 0.0
11/10:00am 12.7 11.2 8.6 76 2.1 WSW 6 7 3 4 - - 0.0
11/09:30am 11.8 10.7 8.6 81 1.6 SW 4 7 2 4 - - 0.0
11/09:00am 11.1 9.6 8.3 83 1.4 SW 6 9 3 5 - - 6.0
11/08:30am 10.8 9.3 8.4 85 1.2 SW 6 11 3 6 - - 6.0
11/08:00am 9.9 8.3 7.8 87 1.0 SW 6 11 3 6 - - 6.0
11/07:30am 9.3 8.0 7.6 89 0.8 SSW 4 7 2 4 - - 6.0
11/07:00am 9.2 7.5 7.5 89 0.8 SSW 6 9 3 5 - - 6.0
11/06:30am 9.3 7.9 7.4 88 0.9 SW 4 7 2 4 - - 6.0
11/06:00am 9.2 7.3 7.5 89 0.8 S 7 13 4 7 - - 6.0
11/05:30am 9.3 7.4 7.4 88 0.9 SSW 7 13 4 7 - - 6.0
11/05:00am 9.2 7.5 7.6 90 0.8 SW 6 7 3 4 - - 6.0
11/04:30am 9.3 8.0 7.7 90 0.8 SW 4 7 2 4 - - 6.0
11/04:00am 9.3 7.6 7.7 90 0.8 SW 6 9 3 5 - - 6.0
11/03:30am 9.3 7.7 7.9 91 0.7 SW 6 11 3 6 - - 6.0
11/03:00am 9.3 7.5 7.9 91 0.7 SW 7 11 4 6 - - 6.0
11/02:30am 9.4 7.6 8.0 91 0.7 SSW 7 15 4 8 - - 6.0
11/02:00am 9.3 7.7 8.2 93 0.5 SW 6 11 3 6 - - 6.0
11/01:30am 9.3 7.7 8.2 93 0.5 SSW 6 11 3 6 - - 6.0
11/01:00am 9.2 7.7 8.3 94 0.4 SW 6 9 3 5 - - 6.0
11/12:30am 9.1 7.5 8.2 94 0.4 SW 6 9 3 5 - - 6.0
11/12:00am 9.2 7.7 8.3 94 0.4 SSW 6 7 3 4 - - 6.0
 
Date/Time
EST
Temp
°C
App
Temp
°C
Dew
Point
°C
Rel
Hum
%
Delta-T
°C
Wind Press
QNH
hPa
Press
MSL
hPa
Rain since
9am
mm
Dir  Spd
km/h
Gust
km/h
Spd
kts
Gust
kts
10/11:30pm 9.1 8.0 8.3 95 0.4 SW 4 9 2 5 - - 6.0
10/11:00pm 9.0 7.4 8.2 95 0.4 SW 6 9 3 5 - - 6.0
10/10:30pm 9.0 7.3 8.2 95 0.4 SSW 7 11 4 6 - - 6.0
10/10:00pm 9.0 7.3 8.2 95 0.4 SW 7 17 4 9 - - 6.0
10/09:30pm 9.3 7.6 8.4 94 0.4 WSW 7 13 4 7 - - 6.0
10/09:00pm 9.4 6.6 8.6 95 0.4 WSW 13 22 7 12 - - 6.0
10/08:30pm 9.6 8.1 8.4 92 0.6 SW 6 9 3 5 - - 6.0
10/08:00pm 9.7 8.0 8.3 91 0.7 WSW 7 13 4 7 - - 6.0
10/07:30pm 10.2 8.1 8.3 88 0.9 SW 9 17 5 9 - - 6.0
10/07:00pm 10.1 8.4 8.5 90 0.8 SSW 7 13 4 7 - - 6.0
10/06:30pm 10.8 9.0 8.0 83 1.4 SSW 7 17 4 9 - - 6.0
10/06:00pm 11.1 8.9 7.8 80 1.6 SSW 9 22 5 12 - - 6.0
10/05:30pm 11.2 8.5 7.5 78 1.8 S 11 20 6 11 - - 6.0
10/05:00pm 11.1 9.0 8.3 83 1.4 S 9 19 5 10 - - 5.8
10/04:30pm 11.2 8.5 8.9 86 1.2 S 13 30 7 16 - - 5.8
10/04:00pm 11.1 8.3 8.7 85 1.2 S 13 32 7 17 - - 5.8
10/03:30pm 13.1 9.0 8.0 71 2.5 S 19 35 10 19 - - 5.8
10/03:00pm 12.1 8.6 8.6 79 1.8 S 17 32 9 17 - - 5.8
10/02:30pm 13.0 10.3 8.9 76 2.1 SSW 13 35 7 19 - - 5.8
10/02:00pm 14.1 9.3 7.4 64 3.3 S 22 52 12 28 - - 5.8
10/01:30pm 14.0 9.3 6.1 59 3.8 S 20 41 11 22 - - 5.8
10/01:00pm 13.6 9.3 7.2 65 3.1 S 19 33 10 18 - - 5.8
10/12:30pm 13.6 10.3 8.0 69 2.8 S 15 28 8 15 - - 5.8
10/12:00pm 12.8 9.8 9.4 80 1.7 S 15 37 8 20 - - 5.8
10/11:30am 11.7 7.9 9.1 84 1.3 SSE 19 44 10 24 - - 5.8
10/11:00am 10.9 7.3 9.7 92 0.6 SSE 19 35 10 19 - - 4.8
10/10:30am 13.7 9.8 8.5 71 2.6 S 19 39 10 21 - - 0.0
10/10:00am 13.9 9.9 8.3 69 2.8 S 19 46 10 25 - - 0.0
10/09:30am 14.4 10.5 8.6 68 2.9 S 19 35 10 19 - - 0.0
10/09:00am 13.9 9.9 6.7 62 3.5 SSE 17 32 9 17 - - 72.0
10/08:30am 13.3 9.6 8.0 70 2.6 SSE 17 37 9 20 - - 72.0
10/08:00am 12.4 7.3 7.7 73 2.3 SSE 24 44 13 24 - - 72.0
10/07:30am 11.3 6.9 9.0 86 1.2 SSE 22 44 12 24 - - 72.0
10/07:10am 11.1 5.4 8.5 84 1.3 SSE 28 48 15 26 - - 71.8
10/07:00am 11.4 7.1 9.5 88 1.0 SSE 22 41 12 22 - - 71.6
10/06:30am 11.0 7.9 10.2 95 0.4 SSE 17 41 9 22 - - 65.6
10/06:00am 11.2 7.5 10.3 94 0.5 SSE 20 41 11 22 - - 59.2
10/05:30am 11.5 6.4 10.6 94 0.5 SSE 28 50 15 27 - - 56.8
10/05:19am 11.6 6.5 10.7 94 0.5 SSE 28 57 15 31 - - 55.4
10/05:00am 11.8 7.1 10.7 93 0.6 SSE 26 50 14 27 - - 50.8
10/04:30am 12.1 7.0 10.7 91 0.7 SSE 28 50 15 27 - - 48.8
10/04:27am 12.0 6.9 10.6 91 0.7 SSE 28 54 15 29 - - 48.8
10/04:00am 12.2 7.9 10.6 90 0.8 SSE 24 48 13 26 - - 48.2
10/03:30am 11.7 5.8 10.4 92 0.7 SSE 32 61 17 33 - - 48.0
10/03:17am 12.0 6.8 10.4 90 0.8 SSE 28 46 15 25 - - 47.8
10/03:00am 12.2 7.9 10.8 91 0.7 SSE 24 52 13 28 - - 47.6
10/02:30am 11.7 6.5 10.4 92 0.7 SSE 28 50 15 27 - - 46.4
10/02:24am 11.7 6.5 10.4 92 0.7 SSE 28 52 15 28 - - 45.8
10/02:00am 12.1 8.4 10.3 89 0.9 SSE 20 43 11 23 - - 44.4
10/01:30am 12.0 7.5 9.9 87 1.1 SSE 24 44 13 24 - - 44.0
10/01:00am 12.3 8.1 9.9 85 1.2 SSE 22 46 12 25 - - 43.8
10/12:30am 11.9 8.3 10.0 88 1.0 SE 19 35 10 19 - - 43.8
10/12:00am 11.4 8.7 10.3 93 0.6 SE 15 26 8 14 - - 43.8
 
Date/Time
EST
Temp
°C
App
Temp
°C
Dew
Point
°C
Rel
Hum
%
Delta-T
°C
Wind Press
QNH
hPa
Press
MSL
hPa
Rain since
9am
mm
Dir  Spd
km/h
Gust
km/h
Spd
kts
Gust
kts
09/11:30pm 11.8 9.5 10.4 91 0.7 SSE 13 28 7 15 - - 42.8
09/11:00pm 12.4 8.4 9.2 81 1.6 SSE 20 35 11 19 - - 42.0
09/10:30pm 13.0 8.5 10.0 82 1.6 SSE 24 39 13 21 - - 42.0

Latest Capital City Observations: Canberra | Sydney | Melbourne | Brisbane | Adelaide | Perth | Hobart | Darwin

Other formats

Comma delimited format used in spreadsheet applications
http://www.bom.gov.au/fwo/IDN60901/IDN60901.95684.axf

JavaScript Object Notation format (JSON) in row-major order
http://www.bom.gov.au/fwo/IDN60901/IDN60901.95684.json

Data quality

Most of these data are generated automatically and are frequently updated. Quality checks on data are not normally performed. It is possible for incorrect values to appear. Refer to information at About Latest Weather Observations and please check the disclaimer before using these data.